createdAt,value
2017-02-26T00:00:29.181Z,0
2017-02-26T00:01:29.182Z,0
2017-02-26T00:02:29.162Z,0
2017-02-26T00:03:29.151Z,0
2017-02-26T00:04:29.139Z,0
2017-02-26T00:05:28.752Z,0
2017-02-26T00:06:28.730Z,0
2017-02-26T00:07:28.728Z,0
2017-02-26T00:08:29.102Z,0
2017-02-26T00:09:29.154Z,0
2017-02-26T00:10:29.077Z,0
2017-02-26T00:11:28.682Z,0
2017-02-26T00:12:29.059Z,0
2017-02-26T00:13:29.053Z,0
2017-02-26T00:14:29.034Z,0
2017-02-26T00:15:29.032Z,0
2017-02-26T00:16:28.624Z,0
2017-02-26T00:17:29.004Z,0
2017-02-26T00:18:28.616Z,0
2017-02-26T00:19:28.988Z,0
2017-02-26T00:20:28.969Z,0
2017-02-26T00:21:28.988Z,0
2017-02-26T00:22:28.973Z,0
2017-02-26T00:23:28.935Z,0
2017-02-26T00:24:28.967Z,0
2017-02-26T00:25:28.941Z,0
2017-02-26T00:26:28.922Z,0
2017-02-26T00:27:28.893Z,0
2017-02-26T00:28:28.893Z,0
2017-02-26T00:29:28.875Z,0
2017-02-26T00:30:28.090Z,0
2017-02-26T00:31:28.857Z,0
2017-02-26T00:32:28.854Z,0
2017-02-26T00:33:29.089Z,0
2017-02-26T00:34:28.843Z,0
2017-02-26T00:35:28.821Z,0
2017-02-26T00:36:28.801Z,0
2017-02-26T00:37:28.415Z,0
2017-02-26T00:38:28.794Z,0
2017-02-26T00:39:28.779Z,0
2017-02-26T00:40:28.777Z,0
2017-02-26T00:41:28.363Z,0
2017-02-26T00:42:28.757Z,0
2017-02-26T00:43:28.353Z,0
2017-02-26T00:44:28.724Z,0
2017-02-26T00:45:28.317Z,0
2017-02-26T00:46:28.695Z,0
2017-02-26T00:47:28.697Z,0
2017-02-26T00:48:28.286Z,0
2017-02-26T00:49:28.661Z,0
2017-02-26T00:50:28.278Z,0
2017-02-26T00:51:28.642Z,0
2017-02-26T00:52:28.260Z,0
2017-02-26T00:53:28.623Z,0
2017-02-26T00:54:28.610Z,0
2017-02-26T00:55:28.598Z,0
2017-02-26T00:56:27.828Z,0
2017-02-26T00:57:28.216Z,0
2017-02-26T00:58:28.580Z,0
2017-02-26T00:59:28.877Z,0
2017-02-26T01:00:28.554Z,0
2017-02-26T01:01:28.158Z,0
2017-02-26T01:02:28.141Z,0
2017-02-26T01:03:28.529Z,0
2017-02-26T01:04:28.508Z,0
2017-02-26T01:05:28.518Z,0
2017-02-26T01:06:28.488Z,0
2017-02-26T01:07:28.510Z,0
2017-02-26T01:08:28.487Z,0
2017-02-26T01:09:28.074Z,0
2017-02-26T01:10:28.448Z,0
2017-02-26T01:11:28.452Z,0
2017-02-26T01:12:28.043Z,0
2017-02-26T01:13:28.429Z,0
2017-02-26T01:14:28.405Z,0
2017-02-26T01:15:28.410Z,0
2017-02-26T01:16:28.399Z,0
2017-02-26T01:17:28.380Z,0
2017-02-26T01:18:27.983Z,0
2017-02-26T01:19:28.358Z,0
2017-02-26T01:20:28.391Z,0
2017-02-26T01:21:28.332Z,0
2017-02-26T01:22:28.333Z,0
2017-02-26T01:23:28.325Z,0
2017-02-26T01:24:28.305Z,0
2017-02-26T01:25:28.297Z,0
2017-02-26T01:26:28.285Z,0
2017-02-26T01:27:28.285Z,0
2017-02-26T01:28:28.262Z,0
2017-02-26T01:29:28.261Z,0
2017-02-26T01:30:28.260Z,0
2017-02-26T01:31:27.848Z,0
2017-02-26T01:32:27.843Z,0
2017-02-26T01:33:27.456Z,0
2017-02-26T01:34:27.817Z,0
2017-02-26T01:35:27.805Z,0
2017-02-26T01:36:28.192Z,0
2017-02-26T01:37:27.785Z,0
2017-02-26T01:38:28.172Z,0
2017-02-26T01:39:28.149Z,0
2017-02-26T01:40:27.778Z,0
2017-02-26T01:41:28.137Z,0
2017-02-26T01:42:28.127Z,0
2017-02-26T01:43:28.131Z,0
2017-02-26T01:44:27.726Z,0
2017-02-26T01:45:28.095Z,0
2017-02-26T01:46:27.707Z,0
2017-02-26T01:47:28.072Z,0
2017-02-26T01:48:27.694Z,0
2017-02-26T01:49:28.074Z,0
2017-02-26T01:50:28.051Z,0
2017-02-26T01:51:28.068Z,0
2017-02-26T01:52:28.044Z,0
2017-02-26T01:53:28.013Z,0
2017-02-26T01:54:28.061Z,0
2017-02-26T01:55:28.014Z,0
2017-02-26T01:56:27.982Z,0
2017-02-26T01:57:27.992Z,0
2017-02-26T01:58:27.960Z,0
2017-02-26T01:59:27.955Z,0
2017-02-26T02:00:27.954Z,0
2017-02-26T02:01:27.546Z,0
2017-02-26T02:02:27.942Z,0
2017-02-26T02:03:27.932Z,0
2017-02-26T02:04:27.525Z,0
2017-02-26T02:05:27.904Z,0
2017-02-26T02:06:27.880Z,0
2017-02-26T02:07:27.877Z,0
2017-02-26T02:08:27.864Z,0
2017-02-26T02:09:27.855Z,0
2017-02-26T02:10:27.460Z,0
2017-02-26T02:11:27.851Z,0
2017-02-26T02:12:27.436Z,0
2017-02-26T02:13:27.810Z,0
2017-02-26T02:14:27.814Z,0
2017-02-26T02:15:27.798Z,0
2017-02-26T02:16:27.017Z,0
2017-02-26T02:17:27.773Z,0
2017-02-26T02:18:27.375Z,0
2017-02-26T02:19:27.764Z,0
2017-02-26T02:20:27.743Z,0
2017-02-26T02:21:27.737Z,0
2017-02-26T02:22:27.735Z,0
2017-02-26T02:23:27.717Z,0
2017-02-26T02:24:27.341Z,0
2017-02-26T02:25:27.693Z,0
2017-02-26T02:26:27.685Z,0
2017-02-26T02:27:27.296Z,0
2017-02-26T02:28:27.288Z,0
2017-02-26T02:29:27.658Z,0
2017-02-26T02:30:27.644Z,0
2017-02-26T02:31:27.259Z,0
2017-02-26T02:32:27.257Z,0
2017-02-26T02:33:27.227Z,0
2017-02-26T02:34:27.219Z,0
2017-02-26T02:35:27.596Z,0
2017-02-26T02:36:27.204Z,0
2017-02-26T02:37:27.576Z,0
2017-02-26T02:38:26.801Z,0
2017-02-26T02:39:27.552Z,0
2017-02-26T02:40:27.170Z,0
2017-02-26T02:41:27.537Z,0
2017-02-26T02:42:27.528Z,0
2017-02-26T02:43:27.523Z,0
2017-02-26T02:44:27.516Z,0
2017-02-26T02:45:27.108Z,0
2017-02-26T02:46:27.098Z,0
2017-02-26T02:47:27.497Z,0
2017-02-26T02:48:27.480Z,0
2017-02-26T02:49:27.479Z,0
2017-02-26T02:50:27.447Z,0
2017-02-26T02:51:27.437Z,0
2017-02-26T02:52:27.438Z,0
2017-02-26T02:53:27.421Z,0
2017-02-26T02:54:27.435Z,0
2017-02-26T02:55:27.401Z,0
2017-02-26T02:56:27.388Z,0
2017-02-26T02:57:27.380Z,0
2017-02-26T02:58:27.382Z,0
2017-02-26T02:59:27.359Z,0
2017-02-26T03:00:27.364Z,0
2017-02-26T03:01:27.338Z,0
2017-02-26T03:02:27.359Z,0
2017-02-26T03:03:27.318Z,0
2017-02-26T03:04:27.313Z,0
2017-02-26T03:05:26.916Z,0
2017-02-26T03:06:26.912Z,0
2017-02-26T03:07:27.281Z,0
2017-02-26T03:08:27.273Z,0
2017-02-26T03:09:27.302Z,0
2017-02-26T03:10:27.255Z,0
2017-02-26T03:11:27.253Z,0
2017-02-26T03:12:27.233Z,0
2017-02-26T03:13:27.228Z,0
2017-02-26T03:14:27.247Z,0
2017-02-26T03:15:27.206Z,0
2017-02-26T03:16:27.194Z,0
2017-02-26T03:17:27.186Z,0
2017-02-26T03:18:27.190Z,0
2017-02-26T03:19:27.172Z,0
2017-02-26T03:20:26.781Z,0
2017-02-26T03:21:27.149Z,0
2017-02-26T03:22:27.151Z,0
2017-02-26T03:23:27.141Z,0
2017-02-26T03:24:27.115Z,0
2017-02-26T03:25:27.115Z,0
2017-02-26T03:26:27.096Z,0
2017-02-26T03:27:27.084Z,0
2017-02-26T03:28:26.707Z,0
2017-02-26T03:29:27.067Z,0
2017-02-26T03:30:27.081Z,0
2017-02-26T03:31:27.053Z,0
2017-02-26T03:32:27.042Z,0
2017-02-26T03:33:27.033Z,0
2017-02-26T03:34:27.015Z,0
2017-02-26T03:35:27.021Z,0
2017-02-26T03:36:27.002Z,0
2017-02-26T03:37:26.987Z,0
2017-02-26T03:38:26.982Z,0
2017-02-26T03:39:26.979Z,0
2017-02-26T03:40:26.567Z,0
2017-02-26T03:41:26.957Z,0
2017-02-26T03:42:26.950Z,0
2017-02-26T03:43:26.550Z,0
2017-02-26T03:44:26.916Z,0
2017-02-26T03:45:26.520Z,0
2017-02-26T03:46:26.899Z,0
2017-02-26T03:47:26.885Z,0
2017-02-26T03:48:26.886Z,0
2017-02-26T03:49:26.881Z,0
2017-02-26T03:50:26.471Z,0
2017-02-26T03:51:26.856Z,0
2017-02-26T03:52:26.481Z,0
2017-02-26T03:53:26.845Z,0
2017-02-26T03:54:26.873Z,0
2017-02-26T03:55:26.811Z,0
2017-02-26T03:56:26.800Z,0
2017-02-26T03:57:26.804Z,0
2017-02-26T03:58:26.782Z,0
2017-02-26T03:59:26.772Z,0
2017-02-26T04:00:26.821Z,0
2017-02-26T04:01:26.757Z,0
2017-02-26T04:02:26.761Z,0
2017-02-26T04:03:26.736Z,0
2017-02-26T04:04:26.731Z,0
2017-02-26T04:05:26.744Z,0
2017-02-26T04:06:26.736Z,0
2017-02-26T04:07:26.708Z,0
2017-02-26T04:08:26.701Z,0
2017-02-26T04:09:26.684Z,0
2017-02-26T04:10:26.677Z,0
2017-02-26T04:11:26.694Z,0
2017-02-26T04:12:26.645Z,0
2017-02-26T04:13:26.269Z,0
2017-02-26T04:14:26.661Z,0
2017-02-26T04:15:26.633Z,0
2017-02-26T04:16:26.613Z,0
2017-02-26T04:17:26.612Z,0
2017-02-26T04:18:26.587Z,0
2017-02-26T04:19:26.582Z,0
2017-02-26T04:20:26.578Z,0
2017-02-26T04:21:26.562Z,0
2017-02-26T04:22:26.560Z,0
2017-02-26T04:23:26.540Z,0
2017-02-26T04:24:26.538Z,0
2017-02-26T04:25:26.522Z,0
2017-02-26T04:26:26.525Z,0
2017-02-26T04:27:26.511Z,0
2017-02-26T04:28:26.128Z,0
2017-02-26T04:29:26.481Z,0
2017-02-26T04:30:26.491Z,0
2017-02-26T04:31:26.463Z,0
2017-02-26T04:32:26.072Z,0
2017-02-26T04:33:26.493Z,0
2017-02-26T04:34:26.433Z,0
2017-02-26T04:35:26.689Z,0
2017-02-26T04:36:26.420Z,0
2017-02-26T04:37:26.405Z,0
2017-02-26T04:38:26.009Z,0
2017-02-26T04:39:26.386Z,0
2017-02-26T04:40:25.632Z,0
2017-02-26T04:41:25.989Z,0
2017-02-26T04:42:26.356Z,0
2017-02-26T04:43:26.381Z,0
2017-02-26T04:44:26.352Z,0
2017-02-26T04:45:26.350Z,0
2017-02-26T04:46:26.333Z,0
2017-02-26T04:47:26.324Z,0
2017-02-26T04:48:25.542Z,0
2017-02-26T04:49:25.903Z,0
2017-02-26T04:50:26.276Z,0
2017-02-26T04:51:26.278Z,0
2017-02-26T04:52:25.877Z,0
2017-02-26T04:53:26.253Z,0
2017-02-26T04:54:26.246Z,0
2017-02-26T04:55:26.243Z,0
2017-02-26T04:56:26.226Z,0
2017-02-26T04:57:26.211Z,0
2017-02-26T04:58:26.220Z,0
2017-02-26T04:59:26.199Z,0
2017-02-26T05:00:26.203Z,0
2017-02-26T05:01:26.183Z,0
2017-02-26T05:02:26.164Z,0
2017-02-26T05:03:26.155Z,0
2017-02-26T05:04:26.354Z,0
2017-02-26T05:05:26.135Z,0
2017-02-26T05:06:26.125Z,0
2017-02-26T05:07:26.115Z,0
2017-02-26T05:08:26.110Z,0
2017-02-26T05:09:26.129Z,0
2017-02-26T05:10:26.098Z,0
2017-02-26T05:11:26.077Z,0
2017-02-26T05:12:25.687Z,0
2017-02-26T05:13:26.076Z,0
2017-02-26T05:14:26.059Z,0
2017-02-26T05:15:26.057Z,0
2017-02-26T05:16:25.651Z,0
2017-02-26T05:17:25.653Z,0
2017-02-26T05:18:26.019Z,0
2017-02-26T05:19:26.001Z,0
2017-02-26T05:20:25.224Z,0
2017-02-26T05:21:25.980Z,0
2017-02-26T05:22:25.981Z,0
2017-02-26T05:23:25.961Z,0
2017-02-26T05:24:25.950Z,0
2017-02-26T05:25:25.570Z,0
2017-02-26T05:26:25.550Z,0
2017-02-26T05:27:25.923Z,0
2017-02-26T05:28:25.530Z,0
2017-02-26T05:29:25.912Z,0
2017-02-26T05:30:25.907Z,0
2017-02-26T05:31:25.504Z,0
2017-02-26T05:32:25.500Z,0
2017-02-26T05:33:25.517Z,0
2017-02-26T05:34:25.854Z,4
2017-02-26T05:35:25.861Z,4
2017-02-26T05:36:25.859Z,0
2017-02-26T05:37:25.452Z,4
2017-02-26T05:38:25.427Z,8
2017-02-26T05:39:25.427Z,4
2017-02-26T05:40:25.405Z,4
2017-02-26T05:41:25.412Z,8
2017-02-26T05:42:25.775Z,8
2017-02-26T05:43:25.388Z,12
2017-02-26T05:44:24.981Z,12
2017-02-26T05:45:25.366Z,16
2017-02-26T05:46:25.731Z,16
2017-02-26T05:47:25.723Z,24
2017-02-26T05:48:25.344Z,28
2017-02-26T05:49:25.714Z,32
2017-02-26T05:50:25.304Z,36
2017-02-26T05:51:25.295Z,40
2017-02-26T05:52:25.672Z,48
2017-02-26T05:53:25.663Z,52
2017-02-26T05:54:25.266Z,56
2017-02-26T05:55:25.254Z,56
2017-02-26T05:56:25.634Z,64
2017-02-26T05:57:25.648Z,80
2017-02-26T05:58:25.227Z,80
2017-02-26T05:59:25.225Z,88
2017-02-26T06:00:25.214Z,96
2017-02-26T06:01:25.584Z,104
2017-02-26T06:02:25.591Z,108
2017-02-26T06:03:25.566Z,104
2017-02-26T06:04:25.553Z,108
2017-02-26T06:05:25.545Z,116
2017-02-26T06:06:25.557Z,128
2017-02-26T06:07:25.150Z,128
2017-02-26T06:08:25.520Z,124
2017-02-26T06:09:25.524Z,132
2017-02-26T06:10:25.498Z,136
2017-02-26T06:11:25.100Z,140
2017-02-26T06:12:25.481Z,144
2017-02-26T06:13:25.478Z,160
2017-02-26T06:14:25.453Z,172
2017-02-26T06:15:25.072Z,196
2017-02-26T06:16:25.437Z,248
2017-02-26T06:17:25.451Z,284
2017-02-26T06:18:25.446Z,324
2017-02-26T06:19:25.425Z,352
2017-02-26T06:20:25.027Z,356
2017-02-26T06:21:25.405Z,408
2017-02-26T06:22:25.373Z,456
2017-02-26T06:23:24.994Z,472
2017-02-26T06:24:25.371Z,516
2017-02-26T06:25:25.370Z,612
2017-02-26T06:26:25.345Z,720
2017-02-26T06:27:25.344Z,732
2017-02-26T06:28:25.320Z,736
2017-02-26T06:29:25.329Z,700
2017-02-26T06:30:25.347Z,700
2017-02-26T06:31:25.304Z,668
2017-02-26T06:32:25.278Z,668
2017-02-26T06:33:25.285Z,672
2017-02-26T06:34:25.263Z,736
2017-02-26T06:35:24.881Z,736
2017-02-26T06:36:24.884Z,708
2017-02-26T06:37:25.231Z,732
2017-02-26T06:38:25.223Z,736
2017-02-26T06:39:24.834Z,748
2017-02-26T06:40:25.202Z,776
2017-02-26T06:41:25.196Z,844
2017-02-26T06:42:25.193Z,816
2017-02-26T06:43:25.187Z,812
2017-02-26T06:44:25.160Z,804
2017-02-26T06:45:25.157Z,820
2017-02-26T06:46:24.772Z,820
2017-02-26T06:47:24.754Z,908
2017-02-26T06:48:25.128Z,1052
2017-02-26T06:49:25.113Z,1064
2017-02-26T06:50:25.117Z,1088
2017-02-26T06:51:25.105Z,1148
2017-02-26T06:52:25.109Z,1284
2017-02-26T06:53:25.082Z,1400
2017-02-26T06:54:24.683Z,1328
2017-02-26T06:55:25.070Z,1280
2017-02-26T06:56:25.049Z,1260
2017-02-26T06:57:24.650Z,1232
2017-02-26T06:58:25.032Z,1284
2017-02-26T06:59:24.641Z,1340
2017-02-26T07:00:25.007Z,1384
2017-02-26T07:01:25.009Z,1440
2017-02-26T07:02:24.987Z,1508
2017-02-26T07:03:24.984Z,1516
2017-02-26T07:04:24.221Z,1472
2017-02-26T07:05:24.582Z,1512
2017-02-26T07:06:24.963Z,1580
2017-02-26T07:07:24.941Z,1652
2017-02-26T07:08:24.950Z,1684
2017-02-26T07:09:24.918Z,1740
2017-02-26T07:10:24.550Z,1876
2017-02-26T07:11:24.904Z,1788
2017-02-26T07:12:24.512Z,1676
2017-02-26T07:13:24.502Z,1776
2017-02-26T07:14:24.508Z,1992
2017-02-26T07:15:24.864Z,2140
2017-02-26T07:16:24.885Z,2288
2017-02-26T07:17:24.847Z,2404
2017-02-26T07:18:24.476Z,2468
2017-02-26T07:19:24.464Z,2504
2017-02-26T07:20:24.870Z,2432
2017-02-26T07:21:24.422Z,2372
2017-02-26T07:22:24.801Z,2360
2017-02-26T07:23:24.811Z,2356
2017-02-26T07:24:24.843Z,2424
2017-02-26T07:25:24.770Z,2556
2017-02-26T07:26:24.786Z,2600
2017-02-26T07:27:24.752Z,2588
2017-02-26T07:28:23.971Z,2596
2017-02-26T07:29:24.778Z,2588
2017-02-26T07:30:24.736Z,2588
2017-02-26T07:31:24.715Z,2716
2017-02-26T07:32:24.709Z,2700
2017-02-26T07:33:24.696Z,2844
2017-02-26T07:34:24.702Z,3068
2017-02-26T07:35:24.702Z,3188
2017-02-26T07:36:24.672Z,3352
2017-02-26T07:37:24.676Z,3480
2017-02-26T07:38:24.659Z,3856
2017-02-26T07:39:24.650Z,4016
2017-02-26T07:40:24.633Z,3880
2017-02-26T07:41:24.252Z,3864
2017-02-26T07:42:24.616Z,3696
2017-02-26T07:43:24.613Z,3516
2017-02-26T07:44:24.231Z,3280
2017-02-26T07:45:24.598Z,3252
2017-02-26T07:46:24.214Z,3108
2017-02-26T07:47:24.572Z,2824
2017-02-26T07:48:24.581Z,2644
2017-02-26T07:49:24.167Z,2896
2017-02-26T07:50:24.553Z,3344
2017-02-26T07:51:24.149Z,3580
2017-02-26T07:52:24.150Z,3568
2017-02-26T07:53:24.144Z,3516
2017-02-26T07:54:24.133Z,3436
2017-02-26T07:55:24.501Z,3896
2017-02-26T07:56:24.508Z,4336
2017-02-26T07:57:24.500Z,4224
2017-02-26T07:58:24.487Z,3680
2017-02-26T07:59:24.462Z,3432
2017-02-26T08:00:24.466Z,3132
2017-02-26T08:01:24.062Z,3428
2017-02-26T08:02:24.455Z,3344
2017-02-26T08:03:24.432Z,3640
2017-02-26T08:04:24.416Z,3828
2017-02-26T08:05:24.408Z,3808
2017-02-26T08:06:24.412Z,4016
2017-02-26T08:07:24.407Z,4152
2017-02-26T08:08:24.379Z,4380
2017-02-26T08:09:24.388Z,4596
2017-02-26T08:10:24.365Z,4812
2017-02-26T08:11:24.353Z,5164
2017-02-26T08:12:23.966Z,5544
2017-02-26T08:13:24.337Z,6020
2017-02-26T08:14:24.329Z,6464
2017-02-26T08:15:24.333Z,6944
2017-02-26T08:16:23.934Z,7336
2017-02-26T08:17:24.300Z,7560
2017-02-26T08:18:24.293Z,7620
2017-02-26T08:19:24.282Z,7680
2017-02-26T08:20:24.282Z,7272
2017-02-26T08:21:24.263Z,6836
2017-02-26T08:22:23.882Z,6532
2017-02-26T08:23:24.261Z,6556
2017-02-26T08:24:24.255Z,6316
2017-02-26T08:25:24.229Z,6988
2017-02-26T08:26:24.231Z,6884
2017-02-26T08:27:24.234Z,6952
2017-02-26T08:28:24.212Z,7020
2017-02-26T08:29:24.219Z,7068
2017-02-26T08:30:24.196Z,7024
2017-02-26T08:31:24.192Z,6992
2017-02-26T08:32:23.802Z,7696
2017-02-26T08:33:24.173Z,7944
2017-02-26T08:34:24.154Z,7600
2017-02-26T08:35:24.164Z,8120
2017-02-26T08:36:24.174Z,8240
2017-02-26T08:37:24.126Z,7208
2017-02-26T08:38:24.124Z,7136
2017-02-26T08:39:24.111Z,7096
2017-02-26T08:40:24.103Z,7204
2017-02-26T08:41:24.095Z,7648
2017-02-26T08:42:24.088Z,7176
2017-02-26T08:43:24.076Z,7092
2017-02-26T08:44:23.683Z,7092
2017-02-26T08:45:24.062Z,6420
2017-02-26T08:46:24.077Z,5960
2017-02-26T08:47:24.051Z,5828
2017-02-26T08:48:23.660Z,5876
2017-02-26T08:49:24.030Z,6232
2017-02-26T08:50:24.024Z,6480
2017-02-26T08:51:24.059Z,7284
2017-02-26T08:52:24.004Z,7648
2017-02-26T08:53:23.617Z,7436
2017-02-26T08:54:23.993Z,7796
2017-02-26T08:55:24.008Z,8488
2017-02-26T08:56:23.970Z,8424
2017-02-26T08:57:23.983Z,7924
2017-02-26T08:58:23.974Z,7924
2017-02-26T08:59:23.978Z,8204
2017-02-26T09:00:23.988Z,9036
2017-02-26T09:01:23.944Z,9836
2017-02-26T09:02:23.924Z,10492
2017-02-26T09:03:23.918Z,11276
2017-02-26T09:04:23.916Z,11884
2017-02-26T09:05:23.902Z,11556
2017-02-26T09:06:23.900Z,11772
2017-02-26T09:07:23.907Z,11744
2017-02-26T09:08:23.877Z,11140
2017-02-26T09:09:23.876Z,10756
2017-02-26T09:10:23.879Z,10764
2017-02-26T09:11:23.875Z,10980
2017-02-26T09:12:23.485Z,11284
2017-02-26T09:13:23.843Z,11372
2017-02-26T09:14:23.877Z,11408
2017-02-26T09:15:23.831Z,11636
2017-02-26T09:16:23.845Z,11616
2017-02-26T09:17:23.423Z,11256
2017-02-26T09:18:23.819Z,10012
2017-02-26T09:19:23.817Z,8992
2017-02-26T09:20:23.842Z,7664
2017-02-26T09:21:23.784Z,7232
2017-02-26T09:22:23.801Z,6492
2017-02-26T09:23:23.793Z,6148
2017-02-26T09:24:23.767Z,6548
2017-02-26T09:25:23.775Z,7072
2017-02-26T09:26:23.364Z,7328
2017-02-26T09:27:23.746Z,7360
2017-02-26T09:28:23.363Z,7348
2017-02-26T09:29:23.739Z,6992
2017-02-26T09:30:23.720Z,6568
2017-02-26T09:31:23.711Z,6228
2017-02-26T09:32:23.730Z,5728
2017-02-26T09:33:23.334Z,5316
2017-02-26T09:34:23.717Z,5896
2017-02-26T09:35:23.694Z,6308
2017-02-26T09:36:23.675Z,7280
2017-02-26T09:37:23.663Z,8184
2017-02-26T09:38:23.663Z,8004
2017-02-26T09:39:22.879Z,7884
2017-02-26T09:40:23.649Z,8352
2017-02-26T09:41:23.645Z,7820
2017-02-26T09:42:23.643Z,7764
2017-02-26T09:43:23.242Z,7524
2017-02-26T09:44:23.624Z,8180
2017-02-26T09:45:23.607Z,9212
2017-02-26T09:46:23.667Z,9060
2017-02-26T09:47:23.603Z,8904
2017-02-26T09:48:22.823Z,9360
2017-02-26T09:49:23.898Z,10000
2017-02-26T09:50:23.579Z,10008
2017-02-26T09:51:23.565Z,9816
2017-02-26T09:52:23.594Z,10240
2017-02-26T09:53:23.552Z,10580
2017-02-26T09:54:23.553Z,9844
2017-02-26T09:55:22.779Z,9272
2017-02-26T09:56:23.527Z,8528
2017-02-26T09:57:23.523Z,8068
2017-02-26T09:58:23.517Z,7348
2017-02-26T09:59:23.517Z,6660
2017-02-26T10:00:23.536Z,5652
2017-02-26T10:01:23.511Z,4916
2017-02-26T10:02:23.490Z,4808
2017-02-26T10:03:23.491Z,5420
2017-02-26T10:04:23.114Z,6472
2017-02-26T10:05:23.104Z,6876
2017-02-26T10:06:23.459Z,7256
2017-02-26T10:07:23.455Z,6924
2017-02-26T10:08:23.451Z,5892
2017-02-26T10:09:23.447Z,5016
2017-02-26T10:10:23.091Z,5152
2017-02-26T10:11:23.057Z,5820
2017-02-26T10:12:23.055Z,5840
2017-02-26T10:13:22.252Z,5776
2017-02-26T10:14:23.030Z,5648
2017-02-26T10:15:23.030Z,5744
2017-02-26T10:16:23.004Z,6108
2017-02-26T10:17:23.015Z,6260
2017-02-26T10:18:22.994Z,6748
2017-02-26T10:19:23.386Z,7572
2017-02-26T10:20:23.364Z,8620
2017-02-26T10:21:23.353Z,9352
2017-02-26T10:22:23.371Z,9480
2017-02-26T10:23:23.366Z,8624
2017-02-26T10:24:23.384Z,7924
2017-02-26T10:25:23.331Z,8284
2017-02-26T10:26:23.348Z,8748
2017-02-26T10:27:23.311Z,8680
2017-02-26T10:28:23.311Z,8572
2017-02-26T10:29:23.299Z,8148
2017-02-26T10:30:23.305Z,7064
2017-02-26T10:31:23.325Z,6208
2017-02-26T10:32:23.275Z,5940
2017-02-26T10:33:23.274Z,5908
2017-02-26T10:34:23.259Z,6136
2017-02-26T10:35:23.263Z,6540
2017-02-26T10:36:23.256Z,7216
2017-02-26T10:37:23.252Z,8096
2017-02-26T10:38:23.243Z,9036
2017-02-26T10:39:23.242Z,9204
2017-02-26T10:40:23.221Z,8892
2017-02-26T10:41:23.212Z,8520
2017-02-26T10:42:23.223Z,8280
2017-02-26T10:43:22.814Z,8392
2017-02-26T10:44:23.200Z,8584
2017-02-26T10:45:23.201Z,8660
2017-02-26T10:46:23.209Z,8688
2017-02-26T10:47:22.787Z,8816
2017-02-26T10:48:22.783Z,8660
2017-02-26T10:49:23.164Z,7924
2017-02-26T10:50:23.157Z,7900
2017-02-26T10:51:22.766Z,8784
2017-02-26T10:52:23.159Z,9560
2017-02-26T10:53:23.153Z,9632
2017-02-26T10:54:23.126Z,9852
2017-02-26T10:55:23.132Z,9240
2017-02-26T10:56:23.111Z,8640
2017-02-26T10:57:23.117Z,8668
2017-02-26T10:58:23.105Z,9284
2017-02-26T10:59:23.105Z,9924
2017-02-26T11:00:23.088Z,9516
2017-02-26T11:01:23.088Z,8648
2017-02-26T11:02:22.771Z,8104
2017-02-26T11:03:23.080Z,7940
2017-02-26T11:04:23.093Z,7776
2017-02-26T11:05:23.051Z,7140
2017-02-26T11:06:23.076Z,6520
2017-02-26T11:07:23.041Z,6276
2017-02-26T11:08:23.045Z,6160
2017-02-26T11:09:23.049Z,6388
2017-02-26T11:10:23.037Z,7240
2017-02-26T11:11:23.060Z,7944
2017-02-26T11:12:23.021Z,7688
2017-02-26T11:13:23.006Z,7936
2017-02-26T11:14:23.031Z,8704
2017-02-26T11:15:23.020Z,9016
2017-02-26T11:16:22.986Z,10160
2017-02-26T11:17:23.030Z,11196
2017-02-26T11:18:23.005Z,11608
2017-02-26T11:19:22.964Z,10840
2017-02-26T11:20:22.979Z,10424
2017-02-26T11:21:22.951Z,10452
2017-02-26T11:22:22.991Z,9572
2017-02-26T11:23:22.940Z,8108
2017-02-26T11:24:22.933Z,7444
2017-02-26T11:25:22.939Z,7396
2017-02-26T11:26:22.928Z,7220
2017-02-26T11:27:22.910Z,7040
2017-02-26T11:28:22.932Z,6832
2017-02-26T11:29:22.905Z,6668
2017-02-26T11:30:22.522Z,6536
2017-02-26T11:31:22.891Z,6416
2017-02-26T11:32:22.884Z,6152
2017-02-26T11:33:22.883Z,5996
2017-02-26T11:34:22.877Z,6208
2017-02-26T11:35:22.865Z,6400
2017-02-26T11:36:22.858Z,7004
2017-02-26T11:37:22.851Z,7740
2017-02-26T11:38:22.849Z,8488
2017-02-26T11:39:22.842Z,9084
2017-02-26T11:40:22.872Z,9552
2017-02-26T11:41:22.834Z,9940
2017-02-26T11:42:22.829Z,9468
2017-02-26T11:43:22.424Z,8476
2017-02-26T11:44:22.440Z,7672
2017-02-26T11:45:22.823Z,7524
2017-02-26T11:46:22.809Z,7852
2017-02-26T11:47:22.815Z,8484
2017-02-26T11:48:22.780Z,9320
2017-02-26T11:49:22.391Z,10312
2017-02-26T11:50:22.787Z,11168
2017-02-26T11:51:22.802Z,11688
2017-02-26T11:52:22.757Z,11552
2017-02-26T11:53:22.751Z,10256
2017-02-26T11:54:22.757Z,9728
2017-02-26T11:55:22.761Z,10332
2017-02-26T11:56:22.732Z,10160
2017-02-26T11:57:22.360Z,8988
2017-02-26T11:58:22.341Z,8236
2017-02-26T11:59:22.336Z,7968
2017-02-26T12:00:22.328Z,8236
2017-02-26T12:01:22.718Z,8088
2017-02-26T12:02:22.707Z,9032
2017-02-26T12:03:22.697Z,9572
2017-02-26T12:04:22.685Z,10016
2017-02-26T12:05:22.331Z,10164
2017-02-26T12:06:22.311Z,10536
2017-02-26T12:07:22.289Z,11136
2017-02-26T12:08:22.671Z,11304
2017-02-26T12:09:22.281Z,10560
2017-02-26T12:10:22.652Z,11096
2017-02-26T12:11:22.259Z,11308
2017-02-26T12:12:22.638Z,10100
2017-02-26T12:13:22.652Z,9708
2017-02-26T12:14:22.255Z,9416
2017-02-26T12:15:22.624Z,9852
2017-02-26T12:16:22.627Z,11200
2017-02-26T12:17:22.615Z,12944
2017-02-26T12:18:22.245Z,12368
2017-02-26T12:19:22.220Z,11860
2017-02-26T12:20:22.613Z,10612
2017-02-26T12:21:22.600Z,10216
2017-02-26T12:22:22.594Z,10988
2017-02-26T12:23:22.581Z,11924
2017-02-26T12:24:22.589Z,12264
2017-02-26T12:25:22.187Z,12468
2017-02-26T12:26:22.578Z,12080
2017-02-26T12:27:22.561Z,11640
2017-02-26T12:28:22.558Z,12236
2017-02-26T12:29:22.557Z,12984
2017-02-26T12:30:22.548Z,11596
2017-02-26T12:31:22.549Z,9136
2017-02-26T12:32:22.172Z,7952
2017-02-26T12:33:22.528Z,7992
2017-02-26T12:34:22.161Z,8468
2017-02-26T12:35:22.534Z,9824
2017-02-26T12:36:22.519Z,10464
2017-02-26T12:37:22.517Z,9988
2017-02-26T12:38:22.535Z,9672
2017-02-26T12:39:22.499Z,9420
2017-02-26T12:40:22.509Z,9192
2017-02-26T12:41:22.505Z,8752
2017-02-26T12:42:22.494Z,8140
2017-02-26T12:43:22.488Z,8244
2017-02-26T12:44:22.481Z,7692
2017-02-26T12:45:22.081Z,7968
2017-02-26T12:46:22.506Z,9752
2017-02-26T12:47:22.482Z,10784
2017-02-26T12:48:22.463Z,11596
2017-02-26T12:49:22.451Z,10916
2017-02-26T12:50:22.472Z,10116
2017-02-26T12:51:22.456Z,9872
2017-02-26T12:52:22.439Z,9580
2017-02-26T12:53:22.437Z,8620
2017-02-26T12:54:22.428Z,7428
2017-02-26T12:55:22.432Z,7296
2017-02-26T12:56:22.031Z,8436
2017-02-26T12:57:22.414Z,9512
2017-02-26T12:58:22.424Z,11316
2017-02-26T12:59:22.419Z,13264
2017-02-26T13:00:22.411Z,14720
2017-02-26T13:01:22.008Z,14160
2017-02-26T13:02:22.388Z,11744
2017-02-26T13:03:21.998Z,10732
2017-02-26T13:04:22.379Z,10640
2017-02-26T13:05:22.017Z,10388
2017-02-26T13:06:22.378Z,10612
2017-02-26T13:07:22.615Z,10252
2017-02-26T13:08:22.394Z,9696
2017-02-26T13:09:21.982Z,9248
2017-02-26T13:10:22.352Z,8248
2017-02-26T13:11:22.347Z,7660
2017-02-26T13:12:22.306Z,7700
2017-02-26T13:13:22.351Z,8116
2017-02-26T13:14:22.356Z,8716
2017-02-26T13:15:22.336Z,9036
2017-02-26T13:16:22.344Z,8928
2017-02-26T13:17:22.315Z,8292
2017-02-26T13:18:22.323Z,7552
2017-02-26T13:19:22.312Z,7112
2017-02-26T13:20:21.919Z,7324
2017-02-26T13:21:22.298Z,8472
2017-02-26T13:22:22.300Z,9744
2017-02-26T13:23:21.902Z,10352
2017-02-26T13:24:22.289Z,10664
2017-02-26T13:25:22.284Z,10352
2017-02-26T13:26:22.280Z,9984
2017-02-26T13:27:22.300Z,10096
2017-02-26T13:28:22.281Z,10324
2017-02-26T13:29:22.267Z,10452
2017-02-26T13:30:22.303Z,10196
2017-02-26T13:31:22.253Z,10740
2017-02-26T13:32:22.243Z,11456
2017-02-26T13:33:22.249Z,11952
2017-02-26T13:34:22.253Z,12092
2017-02-26T13:35:22.229Z,11880
2017-02-26T13:36:22.228Z,11984
2017-02-26T13:37:22.221Z,11868
2017-02-26T13:38:22.218Z,11080
2017-02-26T13:39:22.226Z,9788
2017-02-26T13:40:22.210Z,8872
2017-02-26T13:41:22.204Z,8164
2017-02-26T13:42:21.828Z,7476
2017-02-26T13:43:22.201Z,7360
2017-02-26T13:44:22.196Z,8104
2017-02-26T13:45:22.182Z,8908
2017-02-26T13:46:21.796Z,9168
2017-02-26T13:47:22.180Z,9056
2017-02-26T13:48:22.165Z,8316
2017-02-26T13:49:22.173Z,7620
2017-02-26T13:50:22.171Z,7892
2017-02-26T13:51:22.181Z,8364
2017-02-26T13:52:22.180Z,8064